sensor_id;sensor_type;location;lat;lon;timestamp;P1;durP1;ratioP1;P2;durP2;ratioP2
65049;SDS011;52090;51.224;-2.328;2023-01-19T00:02:19;8.57;;;5.47;;
65049;SDS011;52090;51.224;-2.328;2023-01-19T00:06:05;14.20;;;5.38;;
65049;SDS011;52090;51.224;-2.328;2023-01-19T00:09:47;10.20;;;6.22;;
65049;SDS011;52090;51.224;-2.328;2023-01-19T00:13:29;10.95;;;6.97;;
65049;SDS011;52090;51.224;-2.328;2023-01-19T00:17:11;9.98;;;6.57;;
65049;SDS011;52090;51.224;-2.328;2023-01-19T00:20:53;10.40;;;5.80;;
65049;SDS011;52090;51.224;-2.328;2023-01-19T00:24:34;9.63;;;5.72;;
65049;SDS011;52090;51.224;-2.328;2023-01-19T00:28:17;7.47;;;5.55;;
65049;SDS011;52090;51.224;-2.328;2023-01-19T00:32:00;12.50;;;6.93;;
65049;SDS011;52090;51.224;-2.328;2023-01-19T00:35:42;9.30;;;7.53;;
65049;SDS011;52090;51.224;-2.328;2023-01-19T00:39:24;9.90;;;5.60;;
65049;SDS011;52090;51.224;-2.328;2023-01-19T00:43:06;7.45;;;5.53;;
65049;SDS011;52090;51.224;-2.328;2023-01-19T00:46:48;7.97;;;6.05;;
65049;SDS011;52090;51.224;-2.328;2023-01-19T00:50:30;11.48;;;5.88;;
65049;SDS011;52090;51.224;-2.328;2023-01-19T00:54:12;9.43;;;6.65;;
65049;SDS011;52090;51.224;-2.328;2023-01-19T00:57:54;9.68;;;6.93;;
65049;SDS011;52090;51.224;-2.328;2023-01-19T01:01:37;7.18;;;4.80;;
65049;SDS011;52090;51.224;-2.328;2023-01-19T01:05:25;9.85;;;6.72;;
65049;SDS011;52090;51.224;-2.328;2023-01-19T01:09:07;12.15;;;6.53;;
65049;SDS011;52090;51.224;-2.328;2023-01-19T01:12:52;14.02;;;6.05;;
65049;SDS011;52090;51.224;-2.328;2023-01-19T01:16:38;14.35;;;7.55;;
65049;SDS011;52090;51.224;-2.328;2023-01-19T01:20:23;12.60;;;7.70;;
65049;SDS011;52090;51.224;-2.328;2023-01-19T01:24:08;24.33;;;12.07;;
65049;SDS011;52090;51.224;-2.328;2023-01-19T01:27:51;18.52;;;8.23;;
65049;SDS011;52090;51.224;-2.328;2023-01-19T01:31:33;15.00;;;7.60;;
65049;SDS011;52090;51.224;-2.328;2023-01-19T01:35:15;12.80;;;7.00;;
65049;SDS011;52090;51.224;-2.328;2023-01-19T01:38:57;7.30;;;4.93;;
65049;SDS011;52090;51.224;-2.328;2023-01-19T01:42:40;9.18;;;5.68;;
65049;SDS011;52090;51.224;-2.328;2023-01-19T01:46:23;9.63;;;6.03;;
65049;SDS011;52090;51.224;-2.328;2023-01-19T01:57:57;8.82;;;4.85;;
65049;SDS011;52090;51.224;-2.328;2023-01-19T02:01:42;8.00;;;5.50;;
65049;SDS011;52090;51.224;-2.328;2023-01-19T02:05:43;5.88;;;4.95;;
65049;SDS011;52090;51.224;-2.328;2023-01-19T02:09:26;6.97;;;5.25;;
65049;SDS011;52090;51.224;-2.328;2023-01-19T02:13:35;8.38;;;5.55;;
65049;SDS011;52090;51.224;-2.328;2023-01-19T02:17:20;10.13;;;5.53;;
65049;SDS011;52090;51.224;-2.328;2023-01-19T02:25:04;7.93;;;5.97;;
65049;SDS011;52090;51.224;-2.328;2023-01-19T02:28:48;8.23;;;5.65;;
65049;SDS011;52090;51.224;-2.328;2023-01-19T02:36:23;10.23;;;5.88;;
65049;SDS011;52090;51.224;-2.328;2023-01-19T02:40:09;9.10;;;6.70;;
65049;SDS011;52090;51.224;-2.328;2023-01-19T02:43:54;7.15;;;5.20;;
65049;SDS011;52090;51.224;-2.328;2023-01-19T02:47:40;9.60;;;5.80;;
65049;SDS011;52090;51.224;-2.328;2023-01-19T02:51:24;9.15;;;5.63;;
65049;SDS011;52090;51.224;-2.328;2023-01-19T02:55:12;7.57;;;5.95;;
65049;SDS011;52090;51.224;-2.328;2023-01-19T02:59:09;9.45;;;5.38;;
65049;SDS011;52090;51.224;-2.328;2023-01-19T03:03:12;8.27;;;6.40;;
65049;SDS011;52090;51.224;-2.328;2023-01-19T03:07:28;9.20;;;6.35;;
65049;SDS011;52090;51.224;-2.328;2023-01-19T03:11:32;10.55;;;6.15;;
65049;SDS011;52090;51.224;-2.328;2023-01-19T03:15:20;11.20;;;6.97;;
65049;SDS011;52090;51.224;-2.328;2023-01-19T03:19:11;11.82;;;7.10;;
65049;SDS011;52090;51.224;-2.328;2023-01-19T03:23:09;8.38;;;6.10;;
65049;SDS011;52090;51.224;-2.328;2023-01-19T03:26:53;10.30;;;6.80;;
65049;SDS011;52090;51.224;-2.328;2023-01-19T03:30:45;10.15;;;6.43;;
65049;SDS011;52090;51.224;-2.328;2023-01-19T03:34:32;8.45;;;6.72;;
65049;SDS011;52090;51.224;-2.328;2023-01-19T03:38:23;12.80;;;8.35;;
65049;SDS011;52090;51.224;-2.328;2023-01-19T03:42:08;10.57;;;7.00;;
65049;SDS011;52090;51.224;-2.328;2023-01-19T03:45:54;10.80;;;7.68;;
65049;SDS011;52090;51.224;-2.328;2023-01-19T03:49:37;11.80;;;7.47;;
65049;SDS011;52090;51.224;-2.328;2023-01-19T03:53:21;11.60;;;7.47;;
65049;SDS011;52090;51.224;-2.328;2023-01-19T03:57:03;11.80;;;7.10;;
65049;SDS011;52090;51.224;-2.328;2023-01-19T04:00:44;15.30;;;8.38;;
65049;SDS011;52090;51.224;-2.328;2023-01-19T04:04:26;14.63;;;8.45;;
65049;SDS011;52090;51.224;-2.328;2023-01-19T04:08:08;12.45;;;8.75;;
65049;SDS011;52090;51.224;-2.328;2023-01-19T04:11:51;23.98;;;8.32;;
65049;SDS011;52090;51.224;-2.328;2023-01-19T04:15:33;13.98;;;8.52;;
65049;SDS011;52090;51.224;-2.328;2023-01-19T04:19:14;10.85;;;7.75;;
65049;SDS011;52090;51.224;-2.328;2023-01-19T04:22:59;12.25;;;7.93;;
65049;SDS011;52090;51.224;-2.328;2023-01-19T04:26:42;10.85;;;7.53;;
65049;SDS011;52090;51.224;-2.328;2023-01-19T04:30:24;12.82;;;8.38;;
65049;SDS011;52090;51.224;-2.328;2023-01-19T04:34:07;15.02;;;8.73;;
65049;SDS011;52090;51.224;-2.328;2023-01-19T04:37:49;9.23;;;7.13;;
65049;SDS011;52090;51.224;-2.328;2023-01-19T04:41:31;9.05;;;6.70;;
65049;SDS011;52090;51.224;-2.328;2023-01-19T04:45:13;11.65;;;7.32;;
65049;SDS011;52090;51.224;-2.328;2023-01-19T04:48:55;9.70;;;7.13;;
65049;SDS011;52090;51.224;-2.328;2023-01-19T04:52:37;11.73;;;7.68;;
65049;SDS011;52090;51.224;-2.328;2023-01-19T04:56:18;10.45;;;7.63;;
65049;SDS011;52090;51.224;-2.328;2023-01-19T05:00:00;10.05;;;6.95;;
65049;SDS011;52090;51.224;-2.328;2023-01-19T05:03:43;11.43;;;7.57;;
65049;SDS011;52090;51.224;-2.328;2023-01-19T05:07:25;11.27;;;7.15;;
65049;SDS011;52090;51.224;-2.328;2023-01-19T05:11:06;10.75;;;7.63;;
65049;SDS011;52090;51.224;-2.328;2023-01-19T05:14:48;11.75;;;6.95;;
65049;SDS011;52090;51.224;-2.328;2023-01-19T05:18:30;10.80;;;6.38;;
65049;SDS011;52090;51.224;-2.328;2023-01-19T05:22:16;10.13;;;6.88;;
65049;SDS011;52090;51.224;-2.328;2023-01-19T05:25:58;12.13;;;7.50;;
65049;SDS011;52090;51.224;-2.328;2023-01-19T05:29:42;12.50;;;7.80;;
65049;SDS011;52090;51.224;-2.328;2023-01-19T05:33:24;11.85;;;7.10;;
65049;SDS011;52090;51.224;-2.328;2023-01-19T05:37:06;12.13;;;7.32;;
65049;SDS011;52090;51.224;-2.328;2023-01-19T05:40:48;10.05;;;7.20;;
65049;SDS011;52090;51.224;-2.328;2023-01-19T05:44:29;11.55;;;7.65;;
65049;SDS011;52090;51.224;-2.328;2023-01-19T05:48:11;12.55;;;8.10;;
65049;SDS011;52090;51.224;-2.328;2023-01-19T05:51:53;11.45;;;7.45;;
65049;SDS011;52090;51.224;-2.328;2023-01-19T05:55:35;12.93;;;8.18;;
65049;SDS011;52090;51.224;-2.328;2023-01-19T05:59:16;12.73;;;7.60;;
65049;SDS011;52090;51.224;-2.328;2023-01-19T06:03:04;19.92;;;9.85;;
65049;SDS011;52090;51.224;-2.328;2023-01-19T06:06:49;15.60;;;8.33;;
65049;SDS011;52090;51.224;-2.328;2023-01-19T06:10:31;11.88;;;8.05;;
65049;SDS011;52090;51.224;-2.328;2023-01-19T06:14:13;15.95;;;9.40;;
65049;SDS011;52090;51.224;-2.328;2023-01-19T06:17:55;13.43;;;8.13;;
65049;SDS011;52090;51.224;-2.328;2023-01-19T06:21:37;12.93;;;8.07;;
65049;SDS011;52090;51.224;-2.328;2023-01-19T06:25:19;15.55;;;8.52;;
65049;SDS011;52090;51.224;-2.328;2023-01-19T06:29:00;15.20;;;9.05;;
65049;SDS011;52090;51.224;-2.328;2023-01-19T06:32:42;16.80;;;10.30;;
65049;SDS011;52090;51.224;-2.328;2023-01-19T06:36:24;14.23;;;8.10;;
65049;SDS011;52090;51.224;-2.328;2023-01-19T06:40:06;16.20;;;8.77;;
65049;SDS011;52090;51.224;-2.328;2023-01-19T06:43:48;17.67;;;10.95;;
65049;SDS011;52090;51.224;-2.328;2023-01-19T06:47:30;17.05;;;10.70;;
65049;SDS011;52090;51.224;-2.328;2023-01-19T06:51:14;17.52;;;8.45;;
65049;SDS011;52090;51.224;-2.328;2023-01-19T06:54:56;11.95;;;7.78;;
65049;SDS011;52090;51.224;-2.328;2023-01-19T06:58:38;13.27;;;6.95;;
65049;SDS011;52090;51.224;-2.328;2023-01-19T07:02:22;12.13;;;7.22;;
65049;SDS011;52090;51.224;-2.328;2023-01-19T07:06:07;12.57;;;7.47;;
65049;SDS011;52090;51.224;-2.328;2023-01-19T07:09:49;11.93;;;7.35;;
65049;SDS011;52090;51.224;-2.328;2023-01-19T07:13:34;12.82;;;6.90;;
65049;SDS011;52090;51.224;-2.328;2023-01-19T07:17:18;12.60;;;7.63;;
65049;SDS011;52090;51.224;-2.328;2023-01-19T07:21:00;15.15;;;8.20;;
65049;SDS011;52090;51.224;-2.328;2023-01-19T07:24:42;13.95;;;8.15;;
65049;SDS011;52090;51.224;-2.328;2023-01-19T07:28:23;13.82;;;8.15;;
65049;SDS011;52090;51.224;-2.328;2023-01-19T07:32:05;11.00;;;7.05;;
65049;SDS011;52090;51.224;-2.328;2023-01-19T07:35:48;14.38;;;7.32;;
65049;SDS011;52090;51.224;-2.328;2023-01-19T07:39:30;13.77;;;7.88;;
65049;SDS011;52090;51.224;-2.328;2023-01-19T07:43:12;17.65;;;9.07;;
65049;SDS011;52090;51.224;-2.328;2023-01-19T07:46:55;18.40;;;11.32;;
65049;SDS011;52090;51.224;-2.328;2023-01-19T07:50:36;16.10;;;9.02;;
65049;SDS011;52090;51.224;-2.328;2023-01-19T07:54:18;17.85;;;9.07;;
65049;SDS011;52090;51.224;-2.328;2023-01-19T07:58:01;14.25;;;9.38;;
65049;SDS011;52090;51.224;-2.328;2023-01-19T08:01:47;18.02;;;9.88;;
65049;SDS011;52090;51.224;-2.328;2023-01-19T08:05:30;14.52;;;8.50;;
65049;SDS011;52090;51.224;-2.328;2023-01-19T08:09:12;17.67;;;11.55;;
65049;SDS011;52090;51.224;-2.328;2023-01-19T08:12:55;16.20;;;9.35;;
65049;SDS011;52090;51.224;-2.328;2023-01-19T08:16:37;13.95;;;8.93;;
65049;SDS011;52090;51.224;-2.328;2023-01-19T08:20:19;16.67;;;9.90;;
65049;SDS011;52090;51.224;-2.328;2023-01-19T08:24:03;12.15;;;8.40;;
65049;SDS011;52090;51.224;-2.328;2023-01-19T08:27:45;14.02;;;8.60;;
65049;SDS011;52090;51.224;-2.328;2023-01-19T08:31:27;16.42;;;9.07;;
65049;SDS011;52090;51.224;-2.328;2023-01-19T08:35:09;16.90;;;9.35;;
65049;SDS011;52090;51.224;-2.328;2023-01-19T08:38:51;18.52;;;9.77;;
65049;SDS011;52090;51.224;-2.328;2023-01-19T08:42:33;18.60;;;10.50;;
65049;SDS011;52090;51.224;-2.328;2023-01-19T08:46:15;23.02;;;12.88;;
65049;SDS011;52090;51.224;-2.328;2023-01-19T08:49:57;24.48;;;14.02;;
65049;SDS011;52090;51.224;-2.328;2023-01-19T08:53:39;19.98;;;11.30;;
65049;SDS011;52090;51.224;-2.328;2023-01-19T09:01:05;25.42;;;11.88;;
65049;SDS011;52090;51.224;-2.328;2023-01-19T09:08:30;25.58;;;11.32;;
65049;SDS011;52090;51.224;-2.328;2023-01-19T09:12:11;30.17;;;12.00;;
65049;SDS011;52090;51.224;-2.328;2023-01-19T09:15:53;32.50;;;11.90;;
65049;SDS011;52090;51.224;-2.328;2023-01-19T09:19:35;28.88;;;12.32;;
65049;SDS011;52090;51.224;-2.328;2023-01-19T09:23:18;35.50;;;12.18;;
65049;SDS011;52090;51.224;-2.328;2023-01-19T09:27:00;17.83;;;9.15;;
65049;SDS011;52090;51.224;-2.328;2023-01-19T09:30:42;15.25;;;8.68;;
65049;SDS011;52090;51.224;-2.328;2023-01-19T09:34:25;17.73;;;12.15;;
65049;SDS011;52090;51.224;-2.328;2023-01-19T09:38:07;45.03;;;30.25;;
65049;SDS011;52090;51.224;-2.328;2023-01-19T09:41:54;44.50;;;32.72;;
65049;SDS011;52090;51.224;-2.328;2023-01-19T09:46:02;17.13;;;10.23;;
65049;SDS011;52090;51.224;-2.328;2023-01-19T09:57:53;16.15;;;9.23;;
65049;SDS011;52090;51.224;-2.328;2023-01-19T10:06:00;13.07;;;7.90;;
65049;SDS011;52090;51.224;-2.328;2023-01-19T10:09:56;18.13;;;10.23;;
65049;SDS011;52090;51.224;-2.328;2023-01-19T10:14:02;21.65;;;11.90;;
65049;SDS011;52090;51.224;-2.328;2023-01-19T10:21:34;16.83;;;10.02;;
65049;SDS011;52090;51.224;-2.328;2023-01-19T10:25:21;13.43;;;8.30;;
65049;SDS011;52090;51.224;-2.328;2023-01-19T10:29:05;14.40;;;8.48;;
65049;SDS011;52090;51.224;-2.328;2023-01-19T10:32:53;13.52;;;7.25;;
65049;SDS011;52090;51.224;-2.328;2023-01-19T10:36:36;11.68;;;7.90;;
65049;SDS011;52090;51.224;-2.328;2023-01-19T10:40:23;12.68;;;7.30;;
65049;SDS011;52090;51.224;-2.328;2023-01-19T10:44:28;11.57;;;7.10;;
65049;SDS011;52090;51.224;-2.328;2023-01-19T10:48:15;10.00;;;6.40;;
65049;SDS011;52090;51.224;-2.328;2023-01-19T10:51:57;13.10;;;7.15;;
65049;SDS011;52090;51.224;-2.328;2023-01-19T10:55:40;12.07;;;7.15;;
65049;SDS011;52090;51.224;-2.328;2023-01-19T10:59:45;11.90;;;6.78;;
65049;SDS011;52090;51.224;-2.328;2023-01-19T11:03:32;10.30;;;7.40;;
65049;SDS011;52090;51.224;-2.328;2023-01-19T11:07:16;11.90;;;7.57;;
65049;SDS011;52090;51.224;-2.328;2023-01-19T11:11:14;13.57;;;6.20;;
65049;SDS011;52090;51.224;-2.328;2023-01-19T11:14:56;13.98;;;6.53;;
65049;SDS011;52090;51.224;-2.328;2023-01-19T11:18:38;15.18;;;8.35;;
65049;SDS011;52090;51.224;-2.328;2023-01-19T11:22:24;10.85;;;6.55;;
65049;SDS011;52090;51.224;-2.328;2023-01-19T11:26:24;14.43;;;6.60;;
65049;SDS011;52090;51.224;-2.328;2023-01-19T11:30:30;12.57;;;8.30;;
65049;SDS011;52090;51.224;-2.328;2023-01-19T11:34:31;15.48;;;8.73;;
65049;SDS011;52090;51.224;-2.328;2023-01-19T11:38:15;13.80;;;7.40;;
65049;SDS011;52090;51.224;-2.328;2023-01-19T11:42:00;14.45;;;6.78;;
65049;SDS011;52090;51.224;-2.328;2023-01-19T11:45:44;20.73;;;6.75;;
65049;SDS011;52090;51.224;-2.328;2023-01-19T11:53:35;12.63;;;6.32;;
65049;SDS011;52090;51.224;-2.328;2023-01-19T11:57:18;18.05;;;7.45;;
65049;SDS011;52090;51.224;-2.328;2023-01-19T12:04:44;12.63;;;6.15;;
65049;SDS011;52090;51.224;-2.328;2023-01-19T12:09:02;13.45;;;6.30;;
65049;SDS011;52090;51.224;-2.328;2023-01-19T12:12:51;13.97;;;5.40;;
65049;SDS011;52090;51.224;-2.328;2023-01-19T12:16:33;11.47;;;4.60;;
65049;SDS011;52090;51.224;-2.328;2023-01-19T12:24:28;10.60;;;5.47;;
65049;SDS011;52090;51.224;-2.328;2023-01-19T12:28:16;10.25;;;5.07;;
65049;SDS011;52090;51.224;-2.328;2023-01-19T12:32:15;11.10;;;4.68;;
65049;SDS011;52090;51.224;-2.328;2023-01-19T12:36:07;14.52;;;5.78;;
65049;SDS011;52090;51.224;-2.328;2023-01-19T12:39:50;7.93;;;5.10;;
65049;SDS011;52090;51.224;-2.328;2023-01-19T12:43:31;9.52;;;5.43;;
65049;SDS011;52090;51.224;-2.328;2023-01-19T12:50:55;8.98;;;4.22;;
65049;SDS011;52090;51.224;-2.328;2023-01-19T12:54:37;12.60;;;4.70;;
65049;SDS011;52090;51.224;-2.328;2023-01-19T12:58:23;9.98;;;3.80;;
65049;SDS011;52090;51.224;-2.328;2023-01-19T13:02:29;8.93;;;3.70;;
65049;SDS011;52090;51.224;-2.328;2023-01-19T13:06:20;8.90;;;3.70;;
65049;SDS011;52090;51.224;-2.328;2023-01-19T13:14:50;9.52;;;3.95;;
65049;SDS011;52090;51.224;-2.328;2023-01-19T13:19:30;11.38;;;4.78;;
65049;SDS011;52090;51.224;-2.328;2023-01-19T13:23:21;10.27;;;5.63;;
65049;SDS011;52090;51.224;-2.328;2023-01-19T13:27:26;9.60;;;5.50;;
65049;SDS011;52090;51.224;-2.328;2023-01-19T13:31:08;6.80;;;4.38;;
65049;SDS011;52090;51.224;-2.328;2023-01-19T13:34:53;10.20;;;4.28;;
65049;SDS011;52090;51.224;-2.328;2023-01-19T13:38:39;12.65;;;5.47;;
65049;SDS011;52090;51.224;-2.328;2023-01-19T13:42:38;8.45;;;4.80;;
65049;SDS011;52090;51.224;-2.328;2023-01-19T13:46:21;11.60;;;4.85;;
65049;SDS011;52090;51.224;-2.328;2023-01-19T13:50:29;8.30;;;4.20;;
65049;SDS011;52090;51.224;-2.328;2023-01-19T13:54:14;9.10;;;3.78;;
65049;SDS011;52090;51.224;-2.328;2023-01-19T13:57:57;6.43;;;3.17;;
65049;SDS011;52090;51.224;-2.328;2023-01-19T14:01:40;6.63;;;3.03;;
65049;SDS011;52090;51.224;-2.328;2023-01-19T14:05:30;7.63;;;3.70;;
65049;SDS011;52090;51.224;-2.328;2023-01-19T14:09:42;6.43;;;3.63;;
65049;SDS011;52090;51.224;-2.328;2023-01-19T14:13:37;6.82;;;3.70;;
65049;SDS011;52090;51.224;-2.328;2023-01-19T14:17:28;6.47;;;3.08;;
65049;SDS011;52090;51.224;-2.328;2023-01-19T14:21:13;7.85;;;4.18;;
65049;SDS011;52090;51.224;-2.328;2023-01-19T14:28:57;6.15;;;4.05;;
65049;SDS011;52090;51.224;-2.328;2023-01-19T14:32:47;4.93;;;3.15;;
65049;SDS011;52090;51.224;-2.328;2023-01-19T14:40:22;5.95;;;3.42;;
65049;SDS011;52090;51.224;-2.328;2023-01-19T14:44:10;4.80;;;2.90;;
65049;SDS011;52090;51.224;-2.328;2023-01-19T14:48:01;6.10;;;3.10;;
65049;SDS011;52090;51.224;-2.328;2023-01-19T14:51:46;5.13;;;2.55;;
65049;SDS011;52090;51.224;-2.328;2023-01-19T14:55:34;7.97;;;3.00;;
65049;SDS011;52090;51.224;-2.328;2023-01-19T14:59:24;5.20;;;3.20;;
65049;SDS011;52090;51.224;-2.328;2023-01-19T15:03:06;8.10;;;3.65;;
65049;SDS011;52090;51.224;-2.328;2023-01-19T15:06:50;5.47;;;2.63;;
65049;SDS011;52090;51.224;-2.328;2023-01-19T15:10:32;8.45;;;2.95;;
65049;SDS011;52090;51.224;-2.328;2023-01-19T15:14:16;6.35;;;3.72;;
65049;SDS011;52090;51.224;-2.328;2023-01-19T15:18:00;7.32;;;3.92;;
65049;SDS011;52090;51.224;-2.328;2023-01-19T15:21:44;6.15;;;3.20;;
65049;SDS011;52090;51.224;-2.328;2023-01-19T15:25:27;7.33;;;3.77;;
65049;SDS011;52090;51.224;-2.328;2023-01-19T15:29:23;5.65;;;4.07;;
65049;SDS011;52090;51.224;-2.328;2023-01-19T15:33:09;11.07;;;5.35;;
65049;SDS011;52090;51.224;-2.328;2023-01-19T15:37:01;10.00;;;4.43;;
65049;SDS011;52090;51.224;-2.328;2023-01-19T15:40:43;6.68;;;4.03;;
65049;SDS011;52090;51.224;-2.328;2023-01-19T15:44:31;8.88;;;5.60;;
65049;SDS011;52090;51.224;-2.328;2023-01-19T15:48:13;6.38;;;2.90;;
65049;SDS011;52090;51.224;-2.328;2023-01-19T15:51:55;6.78;;;3.88;;
65049;SDS011;52090;51.224;-2.328;2023-01-19T15:55:36;6.85;;;3.85;;
65049;SDS011;52090;51.224;-2.328;2023-01-19T15:59:18;12.30;;;6.18;;
65049;SDS011;52090;51.224;-2.328;2023-01-19T16:03:00;7.50;;;4.78;;
65049;SDS011;52090;51.224;-2.328;2023-01-19T16:06:43;6.88;;;3.83;;
65049;SDS011;52090;51.224;-2.328;2023-01-19T16:10:25;9.48;;;5.80;;
65049;SDS011;52090;51.224;-2.328;2023-01-19T16:14:07;10.70;;;5.35;;
65049;SDS011;52090;51.224;-2.328;2023-01-19T16:17:48;12.65;;;6.55;;
65049;SDS011;52090;51.224;-2.328;2023-01-19T16:21:33;23.98;;;10.75;;
65049;SDS011;52090;51.224;-2.328;2023-01-19T16:25:15;16.38;;;11.45;;
65049;SDS011;52090;51.224;-2.328;2023-01-19T16:28:57;16.23;;;9.48;;
65049;SDS011;52090;51.224;-2.328;2023-01-19T16:32:41;16.27;;;9.27;;
65049;SDS011;52090;51.224;-2.328;2023-01-19T16:36:26;13.93;;;8.25;;
65049;SDS011;52090;51.224;-2.328;2023-01-19T16:40:10;14.38;;;8.13;;
65049;SDS011;52090;51.224;-2.328;2023-01-19T16:43:53;18.50;;;10.40;;
65049;SDS011;52090;51.224;-2.328;2023-01-19T16:47:35;21.55;;;12.32;;
65049;SDS011;52090;51.224;-2.328;2023-01-19T16:51:17;22.88;;;13.10;;
65049;SDS011;52090;51.224;-2.328;2023-01-19T16:54:59;24.47;;;15.90;;
65049;SDS011;52090;51.224;-2.328;2023-01-19T16:58:41;25.42;;;14.63;;
65049;SDS011;52090;51.224;-2.328;2023-01-19T17:02:25;28.17;;;16.65;;
65049;SDS011;52090;51.224;-2.328;2023-01-19T17:09:56;23.58;;;16.23;;
65049;SDS011;52090;51.224;-2.328;2023-01-19T17:13:38;21.65;;;16.10;;
65049;SDS011;52090;51.224;-2.328;2023-01-19T17:17:20;20.45;;;13.95;;
65049;SDS011;52090;51.224;-2.328;2023-01-19T17:21:02;20.70;;;13.27;;
65049;SDS011;52090;51.224;-2.328;2023-01-19T17:24:46;17.65;;;12.70;;
65049;SDS011;52090;51.224;-2.328;2023-01-19T17:28:28;22.15;;;14.10;;
65049;SDS011;52090;51.224;-2.328;2023-01-19T17:32:10;20.83;;;14.38;;
65049;SDS011;52090;51.224;-2.328;2023-01-19T17:35:51;16.65;;;11.57;;
65049;SDS011;52090;51.224;-2.328;2023-01-19T17:39:33;12.82;;;11.25;;
65049;SDS011;52090;51.224;-2.328;2023-01-19T17:43:15;15.98;;;9.82;;
65049;SDS011;52090;51.224;-2.328;2023-01-19T17:46:57;17.15;;;9.98;;
65049;SDS011;52090;51.224;-2.328;2023-01-19T17:50:40;18.70;;;9.95;;
65049;SDS011;52090;51.224;-2.328;2023-01-19T17:54:22;22.38;;;9.85;;
65049;SDS011;52090;51.224;-2.328;2023-01-19T17:58:04;17.85;;;10.85;;
65049;SDS011;52090;51.224;-2.328;2023-01-19T18:01:45;28.10;;;13.65;;
65049;SDS011;52090;51.224;-2.328;2023-01-19T18:05:28;22.20;;;14.85;;
65049;SDS011;52090;51.224;-2.328;2023-01-19T18:09:10;18.67;;;12.00;;
65049;SDS011;52090;51.224;-2.328;2023-01-19T18:12:52;19.13;;;10.80;;
65049;SDS011;52090;51.224;-2.328;2023-01-19T18:16:34;17.92;;;11.35;;
65049;SDS011;52090;51.224;-2.328;2023-01-19T18:20:16;21.27;;;12.98;;
65049;SDS011;52090;51.224;-2.328;2023-01-19T18:23:58;19.23;;;12.38;;
65049;SDS011;52090;51.224;-2.328;2023-01-19T18:27:42;22.65;;;11.68;;
65049;SDS011;52090;51.224;-2.328;2023-01-19T18:31:24;22.88;;;12.07;;
65049;SDS011;52090;51.224;-2.328;2023-01-19T18:35:07;35.83;;;17.40;;
65049;SDS011;52090;51.224;-2.328;2023-01-19T18:38:49;26.92;;;17.33;;
65049;SDS011;52090;51.224;-2.328;2023-01-19T18:42:32;27.05;;;15.05;;
65049;SDS011;52090;51.224;-2.328;2023-01-19T18:46:14;24.70;;;15.00;;
65049;SDS011;52090;51.224;-2.328;2023-01-19T18:49:56;31.58;;;16.38;;
65049;SDS011;52090;51.224;-2.328;2023-01-19T18:53:38;42.13;;;23.17;;
65049;SDS011;52090;51.224;-2.328;2023-01-19T18:57:20;24.13;;;14.30;;
65049;SDS011;52090;51.224;-2.328;2023-01-19T19:01:22;18.73;;;12.93;;
65049;SDS011;52090;51.224;-2.328;2023-01-19T19:05:05;21.25;;;13.80;;
65049;SDS011;52090;51.224;-2.328;2023-01-19T19:08:51;22.25;;;13.45;;
65049;SDS011;52090;51.224;-2.328;2023-01-19T19:12:34;23.10;;;12.48;;
65049;SDS011;52090;51.224;-2.328;2023-01-19T19:16:15;17.00;;;11.07;;
65049;SDS011;52090;51.224;-2.328;2023-01-19T19:19:58;15.75;;;10.95;;
65049;SDS011;52090;51.224;-2.328;2023-01-19T19:23:39;24.88;;;12.68;;
65049;SDS011;52090;51.224;-2.328;2023-01-19T19:27:21;24.08;;;13.43;;
65049;SDS011;52090;51.224;-2.328;2023-01-19T19:31:07;34.17;;;17.70;;
65049;SDS011;52090;51.224;-2.328;2023-01-19T19:34:51;19.33;;;12.80;;
65049;SDS011;52090;51.224;-2.328;2023-01-19T19:38:33;26.38;;;14.43;;
65049;SDS011;52090;51.224;-2.328;2023-01-19T19:42:16;20.40;;;13.18;;
65049;SDS011;52090;51.224;-2.328;2023-01-19T19:45:59;13.43;;;8.73;;
65049;SDS011;52090;51.224;-2.328;2023-01-19T19:49:45;14.20;;;10.57;;
65049;SDS011;52090;51.224;-2.328;2023-01-19T19:53:27;17.42;;;11.85;;
65049;SDS011;52090;51.224;-2.328;2023-01-19T19:57:09;20.98;;;11.88;;
65049;SDS011;52090;51.224;-2.328;2023-01-19T20:00:50;21.05;;;10.60;;
65049;SDS011;52090;51.224;-2.328;2023-01-19T20:04:32;21.45;;;11.40;;
65049;SDS011;52090;51.224;-2.328;2023-01-19T20:08:14;17.08;;;11.48;;
65049;SDS011;52090;51.224;-2.328;2023-01-19T20:11:56;24.00;;;14.10;;
65049;SDS011;52090;51.224;-2.328;2023-01-19T20:15:38;30.45;;;17.40;;
65049;SDS011;52090;51.224;-2.328;2023-01-19T20:19:19;36.17;;;19.77;;
65049;SDS011;52090;51.224;-2.328;2023-01-19T20:23:01;34.83;;;20.65;;
65049;SDS011;52090;51.224;-2.328;2023-01-19T20:26:47;27.20;;;16.05;;
65049;SDS011;52090;51.224;-2.328;2023-01-19T20:30:31;17.48;;;11.50;;
65049;SDS011;52090;51.224;-2.328;2023-01-19T20:34:14;19.67;;;13.73;;
65049;SDS011;52090;51.224;-2.328;2023-01-19T20:37:58;23.33;;;14.05;;
65049;SDS011;52090;51.224;-2.328;2023-01-19T20:41:40;17.92;;;14.48;;
65049;SDS011;52090;51.224;-2.328;2023-01-19T20:45:25;17.80;;;12.73;;
65049;SDS011;52090;51.224;-2.328;2023-01-19T20:49:07;18.58;;;12.57;;
65049;SDS011;52090;51.224;-2.328;2023-01-19T20:52:49;20.95;;;13.98;;
65049;SDS011;52090;51.224;-2.328;2023-01-19T20:56:31;21.35;;;13.43;;
65049;SDS011;52090;51.224;-2.328;2023-01-19T21:00:13;33.35;;;18.25;;
65049;SDS011;52090;51.224;-2.328;2023-01-19T21:03:55;26.83;;;15.68;;
65049;SDS011;52090;51.224;-2.328;2023-01-19T21:07:36;35.53;;;18.75;;
65049;SDS011;52090;51.224;-2.328;2023-01-19T21:11:18;21.63;;;14.18;;
65049;SDS011;52090;51.224;-2.328;2023-01-19T21:15:01;22.52;;;14.18;;
65049;SDS011;52090;51.224;-2.328;2023-01-19T21:18:43;20.30;;;14.00;;
65049;SDS011;52090;51.224;-2.328;2023-01-19T21:22:25;20.63;;;13.13;;
65049;SDS011;52090;51.224;-2.328;2023-01-19T21:26:06;23.10;;;15.85;;
65049;SDS011;52090;51.224;-2.328;2023-01-19T21:29:48;26.85;;;18.20;;
65049;SDS011;52090;51.224;-2.328;2023-01-19T21:33:30;28.05;;;17.58;;
65049;SDS011;52090;51.224;-2.328;2023-01-19T21:37:12;19.85;;;14.20;;
65049;SDS011;52090;51.224;-2.328;2023-01-19T21:40:54;22.83;;;14.48;;
65049;SDS011;52090;51.224;-2.328;2023-01-19T21:44:37;20.83;;;13.65;;
65049;SDS011;52090;51.224;-2.328;2023-01-19T21:48:18;18.40;;;12.15;;
65049;SDS011;52090;51.224;-2.328;2023-01-19T21:52:00;20.80;;;13.05;;
65049;SDS011;52090;51.224;-2.328;2023-01-19T21:55:42;15.75;;;10.95;;
65049;SDS011;52090;51.224;-2.328;2023-01-19T21:59:25;16.08;;;11.32;;
65049;SDS011;52090;51.224;-2.328;2023-01-19T22:03:07;17.95;;;10.77;;
65049;SDS011;52090;51.224;-2.328;2023-01-19T22:06:49;15.68;;;8.88;;
65049;SDS011;52090;51.224;-2.328;2023-01-19T22:10:33;16.38;;;10.18;;
65049;SDS011;52090;51.224;-2.328;2023-01-19T22:14:17;15.88;;;9.63;;
65049;SDS011;52090;51.224;-2.328;2023-01-19T22:17:59;14.98;;;8.32;;
65049;SDS011;52090;51.224;-2.328;2023-01-19T22:21:41;14.38;;;8.88;;
65049;SDS011;52090;51.224;-2.328;2023-01-19T22:25:22;11.18;;;9.07;;
65049;SDS011;52090;51.224;-2.328;2023-01-19T22:29:07;11.90;;;9.18;;
65049;SDS011;52090;51.224;-2.328;2023-01-19T22:36:33;14.00;;;12.00;;
65049;SDS011;52090;51.224;-2.328;2023-01-19T22:40:15;19.65;;;13.73;;
65049;SDS011;52090;51.224;-2.328;2023-01-19T22:43:58;15.20;;;10.68;;
65049;SDS011;52090;51.224;-2.328;2023-01-19T22:47:41;15.50;;;9.80;;
65049;SDS011;52090;51.224;-2.328;2023-01-19T22:51:23;17.33;;;8.45;;
65049;SDS011;52090;51.224;-2.328;2023-01-19T22:55:06;14.18;;;9.10;;
65049;SDS011;52090;51.224;-2.328;2023-01-19T22:58:48;17.33;;;10.00;;
65049;SDS011;52090;51.224;-2.328;2023-01-19T23:02:30;14.00;;;9.60;;
65049;SDS011;52090;51.224;-2.328;2023-01-19T23:06:13;13.52;;;7.53;;
65049;SDS011;52090;51.224;-2.328;2023-01-19T23:10:03;12.35;;;8.65;;